Bird City, Kansas
Current Conditions -  °F | °C
As of 3:35 PM on Wednesday 26 Nov 2014 (Local Time) from KSYF Reporting Station
Broken Clouds Broken Clouds  
Wind Chill: 29°   Ceiling: 6000
Heat Index: 35°   Visibility: 10mi
Dew Point: 25°   Wind: 7mph
Humidity: 67%   Direction: 350°N
Pressure: 30.28"   Gusts: NA
Location:  39.75°N, 101.53°W
Report Text: KSYF 262135Z AUTO 35006KT 10SM SCT028 BKN060 BKN085 01/M04 A3028 RMK AO2 T00141041
Loading
Personal Weather Stations






























Interactive Weather Map New forecast layout! Learn more

10-Day Weather Forecast

Advertisements
Track Severe Weather on mobile